Time;durP1;ratioP1;P1;durP2;ratioP2;P2;SDS_P1;SDS_P2;PMS_P1;PMS_P2;Temp;Humidity;BMP_temperature;BMP_pressure;BME280_temperature;BME280_humidity;BME280_pressure;Samples;Min_cycle;Max_cycle;Signal;HPM_P1;HPM_P2
2022/01/11 00:01:57;;;;;;;266.02;35.80;;;;;;;-0.36;81.31;100206.84;2622887;54;20038;-68
2022/01/11 00:04:29;;;;;;;148.90;27.17;;;;;;;-0.40;81.00;100197.56;2624094;54;20033;-70
2022/01/11 00:07:11;;;;;;;160.68;29.85;;;;;;;-0.46;81.02;100201.31;2624403;54;20541;-69
2022/01/11 00:09:45;;;;;;;150.02;27.80;;;;;;;-0.49;81.47;100204.13;2624254;54;20049;-70
2022/01/11 00:12:29;;;;;;;65.47;22.88;;;;;;;-0.48;81.42;100205.78;2624798;54;20034;-70
2022/01/11 00:15:11;;;;;;;91.68;24.75;;;;;;;-0.30;81.90;100202.09;2623304;54;20039;-71
2022/01/11 00:17:41;;;;;;;44.70;21.55;;;;;;;-0.24;82.13;100206.13;2624600;54;20038;-71
2022/01/11 00:20:20;;;;;;;53.00;21.88;;;;;;;-0.11;81.71;100212.28;2624130;54;20082;-71
2022/01/11 00:24:27;;;;;;;93.35;23.80;;;;;;;-0.15;81.58;100208.19;2625315;54;20050;-69
2022/01/11 00:25:41;;;;;;;80.32;24.92;;;;;;;-0.20;80.74;100201.59;2623510;47;20034;-69
2022/01/11 00:28:19;;;;;;;57.00;23.30;;;;;;;-0.26;81.70;100210.56;2624156;54;20038;-70
2022/01/11 00:31:21;;;;;;;125.47;25.45;;;;;;;-0.29;81.23;100202.94;2625082;54;20053;-69
2022/01/11 00:34:07;;;;;;;76.65;24.23;;;;;;;-0.45;81.25;100209.94;2623990;39;20478;-69
2022/01/11 00:36:46;;;;;;;71.82;22.27;;;;;;;-0.48;81.77;100207.53;2623244;54;20562;-70
2022/01/11 00:39:21;;;;;;;69.13;23.50;;;;;;;-0.52;81.82;100205.13;2624279;47;20030;-70
2022/01/11 00:41:54;;;;;;;102.45;26.08;;;;;;;-0.59;81.71;100208.97;2624602;39;20350;-70
2022/01/11 00:44:30;;;;;;;67.60;22.33;;;;;;;-0.64;82.56;100218.81;2624685;47;20023;-70
2022/01/11 00:47:00;;;;;;;66.70;22.98;;;;;;;-0.62;82.40;100216.09;2623780;46;20066;-69
2022/01/11 00:49:32;;;;;;;81.68;21.85;;;;;;;-0.58;82.85;100204.63;2621841;54;20037;-68
2022/01/11 00:52:05;;;;;;;96.93;23.08;;;;;;;-0.65;82.18;100213.72;2622712;54;20038;-70
2022/01/11 00:54:42;;;;;;;52.20;20.75;;;;;;;-0.77;82.24;100213.47;2624794;54;20031;-69
2022/01/11 00:57:19;;;;;;;150.95;26.42;;;;;;;-0.75;82.93;100214.19;2627050;39;20300;-70
2022/01/11 01:00:01;;;;;;;135.90;23.35;;;;;;;-0.64;83.40;100216.19;2625514;54;20844;-68
2022/01/11 01:02:39;;;;;;;77.82;21.45;;;;;;;-0.64;82.80;100221.41;2625814;54;20050;-70
2022/01/11 01:05:12;;;;;;;123.10;22.23;;;;;;;-0.65;82.77;100227.53;2625242;54;20558;-70
2022/01/11 01:08:05;;;;;;;49.53;20.15;;;;;;;-0.57;83.21;100230.53;2625151;47;20044;-70
2022/01/11 01:10:46;;;;;;;75.70;22.20;;;;;;;-0.61;82.90;100223.00;2625052;54;20029;-70
2022/01/11 01:13:21;;;;;;;43.38;19.35;;;;;;;-0.61;82.80;100235.97;2623532;54;20027;-70
2022/01/11 01:16:21;;;;;;;55.38;18.92;;;;;;;-0.41;83.38;100230.50;2623925;54;20041;-69
2022/01/11 01:19:12;;;;;;;62.17;20.45;;;;;;;-0.41;82.95;100235.69;2623706;54;20034;-69
2022/01/11 01:21:47;;;;;;;60.20;19.15;;;;;;;-0.39;82.73;100235.59;2624922;54;20037;-69
2022/01/11 01:24:17;;;;;;;40.47;19.15;;;;;;;-0.40;83.03;100236.53;2625611;47;20033;-70
2022/01/11 01:26:47;;;;;;;54.53;21.00;;;;;;;-0.43;82.76;100247.91;2625627;47;20030;-70
2022/01/11 01:32:42;;;;;;;78.32;23.13;;;;;;;-0.58;82.31;100252.22;2625200;54;20042;-70
2022/01/11 01:35:13;;;;;;;45.05;18.20;;;;;;;-0.69;82.58;100252.00;2624539;47;20038;-70
2022/01/11 01:37:43;;;;;;;72.60;20.35;;;;;;;-0.70;82.83;100255.50;2623373;54;20030;-70
2022/01/11 01:40:23;;;;;;;56.17;20.23;;;;;;;-0.63;82.92;100256.81;2623790;52;20034;-72
2022/01/11 01:43:08;;;;;;;103.35;20.92;;;;;;;-0.64;82.42;100265.56;2627418;39;20434;-70
2022/01/11 01:45:39;;;;;;;75.75;21.25;;;;;;;-0.84;82.39;100256.25;2625068;54;20613;-70
2022/01/11 01:48:23;;;;;;;89.15;21.60;;;;;;;-0.77;82.84;100261.97;2625054;54;20041;-71
2022/01/11 01:51:09;;;;;;;60.33;18.75;;;;;;;-0.77;83.11;100264.56;2625884;47;20127;-70
2022/01/11 01:53:46;;;;;;;48.28;19.73;;;;;;;-0.64;83.30;100256.94;2625410;54;20026;-70
2022/01/11 01:56:19;;;;;;;83.00;22.20;;;;;;;-0.63;82.85;100262.03;2624808;54;20011;-70
2022/01/11 01:58:49;;;;;;;46.97;18.83;;;;;;;-0.65;82.86;100260.47;2624487;54;20030;-70
2022/01/11 02:01:26;;;;;;;61.88;19.23;;;;;;;-0.58;82.67;100261.75;2625475;47;20038;-69
2022/01/11 02:04:09;;;;;;;40.60;17.42;;;;;;;-0.66;82.72;100259.59;2625883;47;20067;-69
2022/01/11 02:06:43;;;;;;;42.83;20.17;;;;;;;-0.52;83.10;100256.25;2625377;54;20027;-70
2022/01/11 02:09:42;;;;;;;49.03;19.67;;;;;;;-0.30;83.07;100251.47;2627216;54;20031;-70
2022/01/11 02:12:12;;;;;;;56.03;21.13;;;;;;;-0.20;83.11;100256.16;2626047;39;20559;-69
2022/01/11 02:14:48;;;;;;;60.95;21.42;;;;;;;-0.16;82.77;100257.66;2624405;47;20041;-72
2022/01/11 02:17:32;;;;;;;63.53;20.83;;;;;;;-0.21;82.81;100260.50;2625718;47;20601;-71
2022/01/11 02:20:23;;;;;;;64.97;20.50;;;;;;;-0.22;82.55;100260.59;2626401;47;20639;-71
2022/01/11 02:23:03;;;;;;;56.50;18.42;;;;;;;-0.26;82.77;100267.75;2626874;54;20034;-72
2022/01/11 02:25:36;;;;;;;77.15;20.52;;;;;;;-0.26;82.69;100275.53;2627050;47;20030;-70
2022/01/11 02:28:09;;;;;;;64.32;20.02;;;;;;;-0.22;82.25;100271.84;2627147;54;20039;-69
2022/01/11 02:30:39;;;;;;;62.33;20.42;;;;;;;-0.20;82.89;100277.78;2626275;47;20059;-69
2022/01/11 02:33:19;;;;;;;57.88;19.35;;;;;;;-0.15;82.74;100278.38;2626821;47;20030;-69
2022/01/11 02:35:53;;;;;;;52.97;20.15;;;;;;;-0.14;82.34;100279.19;2625643;46;20597;-70
2022/01/11 02:38:23;;;;;;;48.28;19.15;;;;;;;-0.15;82.33;100285.31;2626303;54;20075;-70
2022/01/11 02:40:53;;;;;;;40.17;17.30;;;;;;;-0.30;82.18;100284.44;2625937;54;20049;-70
2022/01/11 02:43:23;;;;;;;50.33;17.42;;;;;;;-0.37;82.19;100280.50;2626386;54;20742;-70
2022/01/11 02:45:53;;;;;;;45.63;18.20;;;;;;;-0.37;82.20;100286.56;2626059;47;20042;-74
2022/01/11 02:48:23;;;;;;;62.53;19.40;;;;;;;-0.40;81.89;100285.88;2626044;54;20577;-69
2022/01/11 02:50:56;;;;;;;53.55;17.83;;;;;;;-0.43;82.03;100289.47;2625928;47;20038;-69
2022/01/11 02:53:25;;;;;;;68.72;17.75;;;;;;;-0.52;82.01;100290.00;2625774;54;20558;-69
2022/01/11 02:55:57;;;;;;;79.13;19.40;;;;;;;-0.60;82.00;100285.25;2625991;54;20031;-70
2022/01/11 02:58:27;;;;;;;138.57;23.70;;;;;;;-0.60;82.20;100290.44;2626136;54;20602;-69
2022/01/11 03:00:57;;;;;;;77.18;19.90;;;;;;;-0.60;82.46;100290.44;2625909;54;20038;-69
2022/01/11 03:03:27;;;;;;;69.43;19.48;;;;;;;-0.63;81.73;100290.59;2625963;47;20050;-70
2022/01/11 03:06:02;;;;;;;60.28;19.08;;;;;;;-0.66;81.96;100289.94;2629548;39;20574;-70
2022/01/11 03:08:38;;;;;;;78.28;20.13;;;;;;;-0.70;81.93;100291.84;2626013;47;20045;-70
2022/01/11 03:11:09;;;;;;;63.42;18.27;;;;;;;-0.70;82.15;100291.84;2628190;39;20626;-69
2022/01/11 03:13:41;;;;;;;46.28;17.17;;;;;;;-0.70;82.04;100289.25;2626349;54;20046;-70
2022/01/11 03:16:12;;;;;;;66.63;18.75;;;;;;;-0.67;81.90;100299.47;2625371;47;20046;-69
2022/01/11 03:18:42;;;;;;;64.07;18.73;;;;;;;-0.63;81.90;100300.16;2625718;54;20042;-72
2022/01/11 03:21:15;;;;;;;44.67;17.67;;;;;;;-0.59;81.93;100294.69;2625713;47;20081;-70
2022/01/11 03:23:45;;;;;;;41.03;15.63;;;;;;;-0.54;82.04;100300.47;2626251;47;20034;-69
2022/01/11 03:26:15;;;;;;;162.07;23.58;;;;;;;-0.65;80.83;100292.47;2625458;54;20112;-70
2022/01/11 03:28:45;;;;;;;68.28;20.65;;;;;;;-0.88;81.06;100301.50;2626304;54;20030;-69
2022/01/11 03:31:15;;;;;;;80.07;19.98;;;;;;;-0.86;81.69;100298.81;2626003;47;20030;-68
2022/01/11 03:33:50;;;;;;;45.28;18.17;;;;;;;-0.75;82.24;100297.28;2625746;47;20085;-69
2022/01/11 03:36:23;;;;;;;31.00;16.70;;;;;;;-0.65;82.60;100302.00;2625828;54;20034;-70
2022/01/11 03:38:53;;;;;;;73.63;17.90;;;;;;;-0.60;81.88;100306.03;2625940;39;20498;-69
2022/01/11 03:41:23;;;;;;;81.05;19.27;;;;;;;-0.76;81.28;100308.63;2625247;47;20078;-70
2022/01/11 03:43:53;;;;;;;34.92;17.30;;;;;;;-0.68;81.70;100310.78;2625964;47;20038;-70
2022/01/11 03:46:24;;;;;;;57.45;19.08;;;;;;;-0.70;81.83;100319.59;2625640;47;20038;-69
2022/01/11 03:48:55;;;;;;;49.50;17.98;;;;;;;-0.71;82.00;100313.56;2625894;47;20150;-69
2022/01/11 03:51:29;;;;;;;33.42;17.10;;;;;;;-0.60;81.88;100311.22;2626141;47;20106;-69
2022/01/11 03:54:05;;;;;;;77.13;19.83;;;;;;;-0.52;81.89;100318.59;2625870;54;20035;-69
2022/01/11 03:56:37;;;;;;;81.18;19.88;;;;;;;-0.49;81.91;100321.03;2624915;47;20030;-69
2022/01/11 03:59:17;;;;;;;56.65;18.77;;;;;;;-0.45;81.73;100313.88;2625992;47;20030;-70
2022/01/11 04:01:47;;;;;;;57.13;20.33;;;;;;;-0.44;82.09;100325.97;2626106;47;20134;-70
2022/01/11 04:04:17;;;;;;;61.97;20.33;;;;;;;-0.47;81.72;100328.72;2626203;47;20035;-70
2022/01/11 04:06:50;;;;;;;44.97;18.48;;;;;;;-0.43;82.16;100328.47;2625862;47;20098;-70
2022/01/11 04:09:19;;;;;;;67.82;19.20;;;;;;;-0.40;81.98;100328.28;2630071;39;20455;-70
2022/01/11 04:11:49;;;;;;;57.00;20.17;;;;;;;-0.44;81.74;100326.78;2627977;39;20530;-68
2022/01/11 04:14:19;;;;;;;64.55;19.75;;;;;;;-0.46;82.23;100328.63;2625117;51;20109;-69
2022/01/11 04:16:49;;;;;;;91.53;19.92;;;;;;;-0.46;81.74;100336.41;2625825;54;20034;-69
2022/01/11 04:19:19;;;;;;;65.55;18.13;;;;;;;-0.54;82.14;100336.84;2626543;47;20047;-69
2022/01/11 04:21:52;;;;;;;40.92;17.35;;;;;;;-0.57;81.78;100339.63;2626652;54;20037;-70
2022/01/11 04:24:22;;;;;;;47.23;17.43;;;;;;;-0.54;81.95;100338.59;2626361;46;20077;-70
2022/01/11 04:26:54;;;;;;;61.08;18.65;;;;;;;-0.53;81.80;100335.94;2626204;47;20313;-69
2022/01/11 04:29:24;;;;;;;49.30;18.77;;;;;;;-0.59;81.92;100346.66;2626383;39;20451;-69
2022/01/11 04:31:53;;;;;;;46.15;16.95;;;;;;;-0.63;82.12;100341.72;2626341;39;20462;-69
2022/01/11 04:34:25;;;;;;;79.32;19.23;;;;;;;-0.67;82.00;100342.78;2625808;47;20042;-69
2022/01/11 04:36:57;;;;;;;61.72;18.70;;;;;;;-0.68;81.87;100344.56;2625639;47;20030;-69
2022/01/11 04:39:29;;;;;;;67.45;18.15;;;;;;;-0.70;81.53;100346.38;2626519;47;20097;-70
2022/01/11 04:41:58;;;;;;;83.93;18.60;;;;;;;-0.71;82.21;100354.28;2630255;39;20508;-69
2022/01/11 04:44:29;;;;;;;32.95;15.02;;;;;;;-0.73;81.53;100359.56;2626361;47;20042;-70
2022/01/11 04:47:00;;;;;;;34.80;14.95;;;;;;;-0.73;81.89;100356.97;2626760;39;20494;-69
2022/01/11 04:49:29;;;;;;;43.30;15.43;;;;;;;-0.81;81.72;100356.53;2625829;47;20048;-70
2022/01/11 04:52:02;;;;;;;68.47;17.35;;;;;;;-0.80;81.77;100359.03;2625747;39;20535;-71
2022/01/11 04:54:31;;;;;;;48.15;17.08;;;;;;;-0.72;81.49;100360.41;2624777;54;20022;-70
2022/01/11 04:57:01;;;;;;;35.05;16.30;;;;;;;-0.75;81.65;100364.81;2624300;46;20030;-71
2022/01/11 04:59:32;;;;;;;31.88;15.32;;;;;;;-0.75;81.62;100361.38;2623617;47;20089;-70
2022/01/11 05:02:02;;;;;;;45.05;15.80;;;;;;;-0.77;81.29;100358.88;2624257;54;20019;-70
2022/01/11 05:04:32;;;;;;;51.05;15.85;;;;;;;-0.78;81.39;100356.34;2623849;46;20041;-70
2022/01/11 05:07:04;;;;;;;40.33;16.65;;;;;;;-0.75;81.08;100369.19;2624100;54;20069;-70
2022/01/11 05:09:34;;;;;;;44.70;16.70;;;;;;;-0.74;81.63;100365.66;2624373;47;20034;-69
2022/01/11 05:12:03;;;;;;;39.78;18.00;;;;;;;-0.73;81.26;100363.91;2624673;54;20018;-70
2022/01/11 05:14:34;;;;;;;30.95;15.02;;;;;;;-0.69;81.40;100361.06;2624817;47;20026;-70
2022/01/11 05:17:06;;;;;;;36.25;17.40;;;;;;;-0.73;81.35;100363.91;2622286;47;20566;-66
2022/01/11 05:19:36;;;;;;;40.17;16.65;;;;;;;-0.86;80.70;100366.31;2618104;54;20026;-66
2022/01/11 05:22:08;;;;;;;34.15;15.15;;;;;;;-0.86;81.09;100368.91;2618222;39;20418;-65
2022/01/11 05:24:38;;;;;;;104.25;21.38;;;;;;;-0.82;81.07;100370.41;2618672;54;20034;-65
2022/01/11 05:27:08;;;;;;;48.90;17.48;;;;;;;-0.81;81.06;100366.94;2617978;47;20042;-64
2022/01/11 05:29:38;;;;;;;53.83;16.60;;;;;;;-0.81;81.10;100377.31;2617920;46;20122;-64
2022/01/11 05:32:09;;;;;;;35.65;17.05;;;;;;;-0.78;81.15;100384.91;2617765;54;20914;-65
2022/01/11 05:34:39;;;;;;;58.70;17.02;;;;;;;-0.77;81.45;100382.25;2617382;54;20797;-64
2022/01/11 05:37:11;;;;;;;39.33;16.35;;;;;;;-0.76;81.77;100378.72;2617636;51;20033;-65
2022/01/11 05:39:41;;;;;;;34.40;16.15;;;;;;;-0.78;81.51;100384.91;2617821;54;20518;-64
2022/01/11 05:42:11;;;;;;;49.90;17.45;;;;;;;-0.76;81.62;100386.53;2618150;47;20034;-64
2022/01/11 05:44:41;;;;;;;56.60;19.98;;;;;;;-0.70;81.49;100387.94;2617865;47;20033;-64
2022/01/11 05:47:11;;;;;;;67.53;18.35;;;;;;;-0.69;82.06;100387.03;2618174;54;20045;-64
2022/01/11 05:49:40;;;;;;;51.88;18.42;;;;;;;-0.68;81.82;100388.72;2618308;54;20042;-65
2022/01/11 05:52:18;;;;;;;49.50;18.30;;;;;;;-0.66;81.59;100388.63;2618264;54;20026;-64
2022/01/11 05:54:47;;;;;;;52.72;19.73;;;;;;;-0.75;81.70;100392.56;2617857;47;20129;-65
2022/01/11 05:57:17;;;;;;;63.28;19.73;;;;;;;-0.78;81.86;100400.50;2618817;39;20441;-63
2022/01/11 05:59:47;;;;;;;57.03;20.35;;;;;;;-0.71;81.77;100403.63;2617955;47;20526;-64
2022/01/11 06:02:17;;;;;;;56.03;20.73;;;;;;;-0.68;81.67;100404.28;2617713;47;20082;-65
2022/01/11 06:04:47;;;;;;;94.85;21.08;;;;;;;-0.65;81.86;100404.13;2617730;47;20038;-65
2022/01/11 06:07:19;;;;;;;73.22;21.23;;;;;;;-0.64;82.13;100402.38;2617687;51;20030;-65
2022/01/11 06:09:49;;;;;;;57.83;18.85;;;;;;;-0.68;81.54;100401.69;2618657;54;20038;-65
2022/01/11 06:12:19;;;;;;;50.42;18.70;;;;;;;-0.71;81.82;100412.25;2618421;54;20018;-65
2022/01/11 06:14:50;;;;;;;49.25;18.27;;;;;;;-0.67;81.90;100410.31;2617618;47;20114;-64
2022/01/11 06:17:20;;;;;;;58.58;18.65;;;;;;;-0.64;82.26;100416.19;2617349;54;20022;-66
2022/01/11 06:19:49;;;;;;;44.28;18.00;;;;;;;-0.63;82.20;100412.66;2618176;39;20413;-66
2022/01/11 06:22:29;;;;;;;60.25;18.60;;;;;;;-0.57;81.89;100406.34;2617953;47;20034;-66
2022/01/11 06:25:06;;;;;;;40.08;18.08;;;;;;;-0.58;81.63;100408.06;2617796;54;20126;-67
2022/01/11 06:27:39;;;;;;;54.58;18.85;;;;;;;-0.61;81.63;100407.41;2617850;54;20534;-65
2022/01/11 06:30:17;;;;;;;53.42;18.88;;;;;;;-0.60;81.24;100407.31;2618363;47;20027;-65
2022/01/11 06:32:48;;;;;;;44.22;17.63;;;;;;;-0.62;81.37;100408.31;2618183;47;20038;-65
2022/01/11 06:35:22;;;;;;;51.90;18.38;;;;;;;-0.62;81.43;100409.16;2621612;47;20114;-67
2022/01/11 06:37:57;;;;;;;60.65;18.98;;;;;;;-0.58;81.29;100415.84;2622059;54;20034;-65
2022/01/11 06:40:26;;;;;;;55.47;18.95;;;;;;;-0.56;81.15;100413.19;2622783;39;20447;-65
2022/01/11 06:42:57;;;;;;;51.50;19.70;;;;;;;-0.56;81.16;100418.38;2622178;47;20085;-66
2022/01/11 06:45:27;;;;;;;64.30;20.42;;;;;;;-0.56;81.27;100408.00;2620066;54;20541;-66
2022/01/11 06:47:59;;;;;;;64.88;20.73;;;;;;;-0.59;81.22;100403.78;2617822;54;20026;-66
2022/01/11 06:50:32;;;;;;;49.17;20.60;;;;;;;-0.63;81.18;100404.88;2618260;47;20043;-65
2022/01/11 06:53:06;;;;;;;55.08;17.98;;;;;;;-0.61;81.16;100416.03;2618212;54;20041;-66
2022/01/11 06:55:40;;;;;;;59.25;19.75;;;;;;;-0.57;81.16;100404.56;2619270;54;20053;-66
2022/01/11 06:58:11;;;;;;;53.85;19.00;;;;;;;-0.51;81.31;100408.59;2621724;54;20029;-66
2022/01/11 07:00:41;;;;;;;53.35;20.73;;;;;;;-0.45;80.87;100412.59;2621922;47;20026;-66
2022/01/11 07:03:15;;;;;;;58.22;21.33;;;;;;;-0.44;80.79;100417.72;2621946;47;20038;-67
2022/01/11 07:05:53;;;;;;;48.72;19.70;;;;;;;-0.48;80.85;100413.63;2621557;47;20029;-65
2022/01/11 07:08:25;;;;;;;60.88;20.67;;;;;;;-0.41;81.08;100414.09;2622052;54;20042;-65
2022/01/11 07:10:55;;;;;;;53.08;20.95;;;;;;;-0.36;80.80;100419.91;2621986;54;20034;-66
2022/01/11 07:13:25;;;;;;;50.10;20.02;;;;;;;-0.31;80.71;100418.72;2623256;54;20030;-66
2022/01/11 07:15:55;;;;;;;55.17;19.48;;;;;;;-0.31;80.82;100420.50;2623864;54;20035;-65
2022/01/11 07:18:25;;;;;;;56.95;20.17;;;;;;;-0.27;81.03;100422.84;2625087;51;20033;-66
2022/01/11 07:20:59;;;;;;;59.28;21.10;;;;;;;-0.19;80.52;100418.97;2623707;47;20158;-65
2022/01/11 07:23:34;;;;;;;59.00;19.65;;;;;;;-0.17;80.43;100415.34;2621359;47;20027;-65
2022/01/11 07:26:07;;;;;;;79.30;21.48;;;;;;;-0.18;80.54;100423.25;2619115;54;20054;-66
2022/01/11 07:28:38;;;;;;;60.80;19.67;;;;;;;-0.21;80.26;100418.22;2618426;47;20026;-66
2022/01/11 07:31:12;;;;;;;61.28;20.98;;;;;;;-0.26;80.20;100421.91;2618736;54;20026;-66
2022/01/11 07:33:47;;;;;;;57.05;18.67;;;;;;;-0.25;80.42;100430.53;2618140;47;20034;-66
2022/01/11 07:36:17;;;;;;;58.90;19.85;;;;;;;-0.30;80.56;100433.38;2618732;54;20065;-66
2022/01/11 07:38:54;;;;;;;51.05;19.63;;;;;;;-0.21;80.23;100437.25;2619245;47;20626;-66
2022/01/11 07:41:29;;;;;;;54.00;17.88;;;;;;;-0.16;80.29;100450.00;2619007;54;20061;-66
2022/01/11 07:44:22;;;;;;;54.90;20.70;;;;;;;-0.13;79.82;100455.03;2619066;54;20031;-66
2022/01/11 07:46:52;;;;;;;50.83;19.20;;;;;;;-0.24;79.72;100457.41;2618954;54;20038;-66
2022/01/11 07:49:34;;;;;;;47.15;19.10;;;;;;;-0.30;79.71;100455.94;2620625;54;20125;-66
2022/01/11 07:52:04;;;;;;;54.90;17.88;;;;;;;-0.34;79.89;100457.03;2621043;39;20542;-66
2022/01/11 07:54:36;;;;;;;54.88;20.30;;;;;;;-0.34;79.55;100464.81;2620970;54;20034;-66
2022/01/11 07:57:09;;;;;;;63.40;19.05;;;;;;;-0.39;80.05;100462.47;2620010;47;20066;-67
2022/01/11 07:59:38;;;;;;;49.05;19.85;;;;;;;-0.41;79.77;100463.47;2619711;39;20430;-66
2022/01/11 08:02:26;;;;;;;46.70;18.45;;;;;;;-0.44;79.71;100474.88;2618927;54;20552;-66
2022/01/11 08:04:57;;;;;;;55.88;19.30;;;;;;;-0.43;79.81;100478.31;2618902;54;20063;-65
2022/01/11 08:07:27;;;;;;;56.00;19.95;;;;;;;-0.48;79.91;100486.38;2618790;47;20219;-66
2022/01/11 08:10:05;;;;;;;57.55;18.95;;;;;;;-0.53;79.92;100488.38;2619007;54;20034;-65
2022/01/11 08:12:35;;;;;;;55.42;19.50;;;;;;;-0.56;80.07;100494.56;2618933;46;20034;-66
2022/01/11 08:15:05;;;;;;;79.63;18.98;;;;;;;-0.54;80.37;100497.91;2618766;54;20026;-64
2022/01/11 08:17:36;;;;;;;45.55;18.80;;;;;;;-0.54;80.18;100495.31;2618521;54;20075;-64
2022/01/11 08:20:07;;;;;;;50.58;19.75;;;;;;;-0.51;80.43;100495.16;2617966;54;20034;-64
2022/01/11 08:22:37;;;;;;;54.60;19.38;;;;;;;-0.52;80.61;100496.06;2618070;54;20034;-64
2022/01/11 08:25:12;;;;;;;82.78;21.35;;;;;;;-0.49;80.75;100500.28;2618999;54;20034;-64
2022/01/11 08:27:43;;;;;;;66.43;20.17;;;;;;;-0.53;80.49;100499.59;2618186;54;20034;-64
2022/01/11 08:30:14;;;;;;;74.40;21.75;;;;;;;-0.46;80.79;100505.28;2618644;54;20041;-66
2022/01/11 08:32:46;;;;;;;112.45;28.52;;;;;;;-0.38;80.30;100507.50;2618004;54;20081;-65
2022/01/11 08:35:16;;;;;;;111.88;26.67;;;;;;;-0.36;80.72;100500.47;2618574;54;20166;-64
2022/01/11 08:37:46;;;;;;;152.30;26.80;;;;;;;-0.31;80.84;100511.44;2617848;54;20034;-64
2022/01/11 08:40:19;;;;;;;97.45;24.13;;;;;;;-0.28;80.79;100511.28;2618079;47;20137;-65
2022/01/11 08:42:49;;;;;;;61.03;21.80;;;;;;;-0.28;80.75;100512.13;2618699;54;20040;-64
2022/01/11 08:45:18;;;;;;;73.40;22.10;;;;;;;-0.25;81.03;100508.50;2618015;47;20041;-65
2022/01/11 08:47:50;;;;;;;61.83;21.92;;;;;;;-0.28;81.08;100512.13;2617733;54;20022;-64
2022/01/11 08:50:21;;;;;;;68.95;22.60;;;;;;;-0.25;80.72;100508.50;2618067;54;20062;-64
2022/01/11 08:52:51;;;;;;;81.15;25.33;;;;;;;-0.29;81.15;100518.25;2618455;47;20031;-65
2022/01/11 08:55:28;;;;;;;;;;;;;;;-0.23;81.17;100518.84;2618590;47;20034;-66
2022/01/11 08:57:58;;;;;;;41.70;18.27;;;;;;;-0.22;81.07;100520.50;2617948;54;19939;-65
2022/01/11 09:00:28;;;;;;;46.60;21.90;;;;;;;-0.26;80.61;100525.88;2618695;46;20531;-66
2022/01/11 09:03:05;;;;;;;46.03;20.30;;;;;;;-0.32;80.82;100517.56;2618272;47;20034;-66
2022/01/11 09:05:42;;;;;;;42.22;19.35;;;;;;;-0.29;80.72;100522.59;2618351;54;20034;-67
2022/01/11 09:08:12;;;;;;;36.45;18.27;;;;;;;-0.31;80.72;100527.03;2617945;46;20044;-64
2022/01/11 09:10:45;;;;;;;42.75;18.98;;;;;;;-0.28;80.48;100527.72;2617938;46;20081;-65
2022/01/11 09:13:16;;;;;;;43.13;18.00;;;;;;;-0.15;81.07;100524.47;2617856;54;20031;-64
2022/01/11 09:15:45;;;;;;;45.72;20.52;;;;;;;-0.06;80.46;100524.81;2617848;47;20039;-65
2022/01/11 09:18:15;;;;;;;55.40;20.23;;;;;;;-0.01;80.70;100528.00;2617942;51;20018;-64
2022/01/11 09:20:47;;;;;;;45.90;19.45;;;;;;;0.03;80.57;100527.81;2617729;54;20039;-64
2022/01/11 09:23:18;;;;;;;48.05;18.92;;;;;;;0.04;80.12;100535.56;2618705;31;20498;-66
2022/01/11 09:25:50;;;;;;;65.85;28.35;;;;;;;0.08;79.70;100518.88;2618179;54;20035;-65
2022/01/11 09:28:20;;;;;;;68.53;31.45;;;;;;;0.11;80.31;100528.25;2617884;47;20037;-64
2022/01/11 09:30:50;;;;;;;57.53;26.13;;;;;;;0.21;80.29;100529.44;2617854;54;20562;-64
2022/01/11 09:33:21;;;;;;;55.30;23.42;;;;;;;0.19;79.57;100526.91;2617838;47;20035;-64
2022/01/11 09:35:51;;;;;;;59.38;23.38;;;;;;;0.17;79.95;100533.13;2617726;51;20027;-64
2022/01/11 09:38:25;;;;;;;56.75;24.02;;;;;;;0.22;79.78;100531.94;2617815;47;20042;-64
2022/01/11 09:41:01;;;;;;;47.70;21.75;;;;;;;0.07;79.49;100527.56;2617979;47;20031;-65
2022/01/11 09:43:35;;;;;;;46.70;20.55;;;;;;;0.14;79.50;100536.72;2617814;47;20037;-64
2022/01/11 09:46:08;;;;;;;39.00;19.15;;;;;;;0.14;79.95;100539.31;2617623;54;20549;-65
2022/01/11 09:48:43;;;;;;;41.05;18.35;;;;;;;0.16;79.25;100542.69;2618136;39;20414;-64
2022/01/11 09:51:14;;;;;;;32.80;15.30;;;;;;;0.19;79.00;100541.66;2617911;47;20026;-64
2022/01/11 09:53:46;;;;;;;37.15;17.10;;;;;;;0.28;79.28;100542.94;2617942;54;20026;-64
2022/01/11 09:56:18;;;;;;;37.97;20.15;;;;;;;0.27;78.58;100549.06;2617678;47;20038;-64
2022/01/11 09:58:48;;;;;;;43.10;22.17;;;;;;;0.36;78.75;100541.56;2618158;31;20537;-65
2022/01/11 10:01:38;;;;;;;29.73;16.75;;;;;;;0.49;78.41;100546.97;2618791;54;20104;-65
2022/01/11 10:04:12;;;;;;;25.88;15.05;;;;;;;0.60;78.12;100536.75;2618430;54;20031;-64
2022/01/11 10:07:07;;;;;;;20.42;13.27;;;;;;;0.56;77.48;100531.81;2618122;54;20061;-66
2022/01/11 10:09:47;;;;;;;20.27;11.98;;;;;;;0.55;77.17;100536.19;2617866;47;20050;-66
2022/01/11 10:12:22;;;;;;;21.70;12.40;;;;;;;0.53;77.34;100540.66;2618255;47;20038;-66
2022/01/11 10:14:54;;;;;;;22.67;12.65;;;;;;;0.64;77.06;100540.88;2618377;46;20064;-66
2022/01/11 10:17:27;;;;;;;23.52;13.18;;;;;;;0.63;76.71;100534.00;2618210;54;20034;-66
2022/01/11 10:20:11;;;;;;;20.73;12.18;;;;;;;0.69;76.93;100543.22;2618714;47;20035;-65
2022/01/11 10:22:52;;;;;;;19.98;12.68;;;;;;;0.82;76.73;100549.41;2618136;51;20038;-66
2022/01/11 10:25:22;;;;;;;20.00;12.00;;;;;;;0.69;76.51;100540.59;2617991;54;20041;-66
2022/01/11 10:28:01;;;;;;;21.55;12.07;;;;;;;0.73;76.40;100544.72;2619861;54;20042;-66
2022/01/11 10:30:36;;;;;;;23.52;11.93;;;;;;;0.83;76.28;100545.03;2622099;39;20501;-64
2022/01/11 10:33:10;;;;;;;20.70;11.82;;;;;;;0.89;76.26;100547.28;2618601;54;20022;-64
2022/01/11 10:35:44;;;;;;;20.63;12.10;;;;;;;1.04;75.95;100546.41;2618178;39;20439;-65
2022/01/11 10:38:42;;;;;;;22.95;13.15;;;;;;;1.15;75.50;100548.41;2617916;54;20083;-64
2022/01/11 10:41:36;;;;;;;;;;;;;;;1.13;75.27;100560.66;2617775;54;20042;-65
2022/01/11 10:44:09;;;;;;;22.48;12.43;;;;;;;1.10;75.35;100548.66;2617590;47;19947;-65
2022/01/11 10:46:46;;;;;;;19.92;12.50;;;;;;;1.10;75.41;100543.47;2617604;39;20426;-66
2022/01/11 10:49:32;;;;;;;20.92;13.15;;;;;;;1.15;75.09;100551.00;2617694;54;20030;-64
2022/01/11 10:52:19;;;;;;;19.77;12.18;;;;;;;1.31;75.29;100543.13;2618610;54;20122;-64
2022/01/11 10:54:55;;;;;;;18.77;11.88;;;;;;;1.39;75.16;100554.75;2618303;51;20035;-63
2022/01/11 10:57:29;;;;;;;22.25;12.68;;;;;;;1.57;75.22;100546.75;2618822;47;20041;-65
2022/01/11 11:00:18;;;;;;;21.95;13.48;;;;;;;1.67;74.65;100538.31;2619409;39;20518;-65
2022/01/11 11:02:52;;;;;;;22.00;13.05;;;;;;;1.62;74.03;100536.88;2618607;54;20078;-65
2022/01/11 11:05:28;;;;;;;24.92;13.75;;;;;;;1.66;74.86;100539.22;2617480;47;20070;-64
2022/01/11 11:08:07;;;;;;;25.42;14.10;;;;;;;1.87;74.57;100542.28;2617606;47;20053;-64
2022/01/11 11:10:46;;;;;;;23.33;14.65;;;;;;;2.01;74.36;100543.22;2618302;31;20451;-65
2022/01/11 11:13:26;;;;;;;28.17;14.85;;;;;;;2.06;74.45;100546.38;2617595;47;20033;-66
2022/01/11 11:16:02;;;;;;;27.80;15.13;;;;;;;2.11;74.58;100537.31;2617541;54;20026;-66
2022/01/11 11:18:37;;;;;;;24.70;15.70;;;;;;;2.21;74.35;100535.81;2618519;39;20453;-66
2022/01/11 11:21:23;;;;;;;29.23;15.23;;;;;;;2.22;73.93;100534.88;2618337;31;20494;-67
2022/01/11 11:23:54;;;;;;;24.77;15.75;;;;;;;2.24;74.00;100537.38;2617739;54;20533;-65
2022/01/11 11:26:28;;;;;;;29.95;16.90;;;;;;;2.31;73.73;100536.06;2617724;47;20078;-65
2022/01/11 11:29:00;;;;;;;26.85;15.70;;;;;;;2.32;73.40;100537.72;2617939;47;20046;-67
2022/01/11 11:31:46;;;;;;;29.20;16.08;;;;;;;2.37;73.74;100540.06;2618236;54;20654;-67
2022/01/11 11:34:16;;;;;;;29.95;17.63;;;;;;;2.47;73.68;100533.31;2619754;54;20111;-65
2022/01/11 12:02:01;;;;;;;;;;;;;;;3.17;73.19;100509.53;2613253;39;20407;-65
2022/01/11 12:04:56;;;;;;;30.08;18.30;;;;;;;3.27;73.46;100494.94;2618335;39;20330;-64
2022/01/11 12:07:32;;;;;;;37.90;19.95;;;;;;;3.48;73.25;100500.47;2617769;54;20034;-64
2022/01/11 12:10:03;;;;;;;33.80;19.10;;;;;;;3.66;73.24;100493.09;2617255;54;20584;-66
2022/01/11 12:12:49;;;;;;;38.75;19.52;;;;;;;3.77;73.11;100498.44;2617712;54;20035;-65